createdAt,value
2018-11-12T00:00:50.216Z,75.80
2018-11-12T00:03:19.511Z,75.80
2018-11-12T00:05:48.873Z,75.80
2018-11-12T00:08:18.200Z,75.80
2018-11-12T00:10:48.173Z,75.70
2018-11-12T00:13:17.504Z,76.70
2018-11-12T00:15:46.887Z,75.80
2018-11-12T00:18:16.192Z,75.90
2018-11-12T00:20:45.520Z,75.80
2018-11-12T00:23:14.882Z,75.90
2018-11-12T00:25:44.274Z,75.30
2018-11-12T00:28:13.702Z,75.20
2018-11-12T00:30:43.260Z,75.20
2018-11-12T00:33:12.675Z,75.10
2018-11-12T00:35:41.975Z,75.00
2018-11-12T00:38:11.323Z,75.00
2018-11-12T00:40:40.746Z,74.90
2018-11-12T00:43:10.074Z,74.90
2018-11-12T00:45:39.394Z,75.00
2018-11-12T00:48:08.722Z,75.00
2018-11-12T00:50:38.016Z,75.00
2018-11-12T00:53:07.385Z,75.00
2018-11-12T00:55:36.707Z,75.00
2018-11-12T00:58:06.238Z,75.00
2018-11-12T01:00:35.534Z,74.80
2018-11-12T01:03:05.401Z,74.80
2018-11-12T01:05:34.781Z,74.70
2018-11-12T01:08:04.339Z,74.80
2018-11-12T01:10:33.747Z,74.80
2018-11-12T01:13:03.147Z,75.00
2018-11-12T01:15:32.555Z,74.80
2018-11-12T01:18:01.931Z,74.90
2018-11-12T01:20:31.256Z,74.90
2018-11-12T01:23:00.628Z,74.90
2018-11-12T01:25:29.943Z,74.90
2018-11-12T01:27:59.242Z,74.90
2018-11-12T01:30:28.577Z,74.90
2018-11-12T01:32:57.898Z,74.70
2018-11-12T01:35:27.182Z,74.70
2018-11-12T01:37:56.511Z,74.70
2018-11-12T01:40:25.866Z,74.60
2018-11-12T01:42:55.210Z,74.60
2018-11-12T01:45:24.589Z,74.70
2018-11-12T01:47:53.993Z,74.60
2018-11-12T01:50:23.332Z,74.60
2018-11-12T01:52:52.654Z,74.60
2018-11-12T01:55:21.974Z,74.60
2018-11-12T01:57:51.250Z,74.60
2018-11-12T02:00:22.422Z,74.60
2018-11-12T02:02:52.893Z,74.60
2018-11-12T02:05:22.309Z,74.60
2018-11-12T02:07:51.651Z,74.70
2018-11-12T02:10:20.950Z,74.80
2018-11-12T02:12:50.355Z,74.80
2018-11-12T02:15:20.991Z,74.60
2018-11-12T02:17:50.924Z,74.50
2018-11-12T02:20:21.213Z,74.60
2018-11-12T02:22:51.196Z,74.50
2018-11-12T02:25:21.061Z,74.50
2018-11-12T02:27:50.380Z,74.60
2018-11-12T02:30:24.932Z,74.40
2018-11-12T02:32:54.260Z,74.40
2018-11-12T02:35:23.609Z,74.50
2018-11-12T02:37:52.945Z,74.40
2018-11-12T02:40:22.284Z,74.40
2018-11-12T02:42:51.652Z,74.40
2018-11-12T02:45:20.993Z,74.30
2018-11-12T02:47:50.350Z,74.30
2018-11-12T02:50:19.628Z,74.30
2018-11-12T02:52:49.048Z,74.40
2018-11-12T02:55:18.382Z,74.30
2018-11-12T02:57:48.384Z,74.30
2018-11-12T03:00:19.868Z,74.30
2018-11-12T03:02:49.294Z,74.20
2018-11-12T03:05:18.638Z,74.30
2018-11-12T03:07:47.989Z,74.40
2018-11-12T03:10:20.628Z,74.40
2018-11-12T03:12:49.982Z,74.40
2018-11-12T03:15:19.978Z,75.00
2018-11-12T03:17:50.281Z,74.30
2018-11-12T03:20:20.904Z,74.20
2018-11-12T03:22:50.254Z,74.20
2018-11-12T03:25:20.660Z,74.00
2018-11-12T03:27:50.461Z,74.10
2018-11-12T03:30:21.122Z,74.00
2018-11-12T03:32:51.427Z,74.00
2018-11-12T03:35:20.851Z,74.10
2018-11-12T03:37:51.048Z,74.10
2018-11-12T03:40:23.907Z,74.20
2018-11-12T03:42:53.526Z,74.20
2018-11-12T03:45:24.067Z,74.20
2018-11-12T03:47:53.455Z,74.00
2018-11-12T03:50:24.121Z,74.00
2018-11-12T03:52:53.482Z,74.10
2018-11-12T03:55:23.773Z,74.00
2018-11-12T03:57:53.165Z,74.10
2018-11-12T04:00:26.890Z,74.10
2018-11-12T04:02:56.194Z,74.00
2018-11-12T04:05:25.976Z,74.00
2018-11-12T04:07:55.995Z,73.90
2018-11-12T04:10:25.557Z,73.90
2018-11-12T04:12:54.958Z,74.00
2018-11-12T04:15:25.512Z,73.90
2018-11-12T04:17:54.988Z,74.00
2018-11-12T04:20:25.141Z,74.00
2018-11-12T04:23:06.560Z,74.00
2018-11-12T04:25:38.487Z,73.90
2018-11-12T04:28:07.826Z,73.80
2018-11-12T04:30:37.210Z,73.90
2018-11-12T04:33:06.615Z,73.80
2018-11-12T04:35:35.979Z,73.80
2018-11-12T04:38:05.488Z,74.00
2018-11-12T04:40:34.867Z,74.10
2018-11-12T04:43:04.203Z,74.10
2018-11-12T04:45:33.719Z,74.00
2018-11-12T04:48:03.055Z,74.00
2018-11-12T04:50:32.977Z,74.00
2018-11-12T04:53:02.709Z,74.00
2018-11-12T04:55:32.053Z,74.00
2018-11-12T04:58:01.407Z,74.00
2018-11-12T05:00:30.782Z,74.10
2018-11-12T05:03:00.115Z,74.10
2018-11-12T05:05:29.759Z,74.10
2018-11-12T05:07:59.103Z,74.10
2018-11-12T05:10:28.563Z,74.10
2018-11-12T05:12:57.934Z,74.10
2018-11-12T05:15:27.536Z,74.10
2018-11-12T05:17:56.846Z,73.90
2018-11-12T05:20:28.452Z,74.00
2018-11-12T05:22:57.856Z,74.00
2018-11-12T05:25:27.188Z,74.10
2018-11-12T05:27:56.610Z,74.00
2018-11-12T05:30:27.236Z,74.00
2018-11-12T05:32:57.177Z,74.00
2018-11-12T05:35:27.924Z,74.10
2018-11-12T05:37:57.473Z,74.10
2018-11-12T05:40:27.915Z,74.10
2018-11-12T05:42:57.366Z,74.00
2018-11-12T05:45:27.993Z,74.00
2018-11-12T05:47:57.498Z,74.00
2018-11-12T05:50:28.428Z,74.00
2018-11-12T05:53:02.005Z,74.00
2018-11-12T05:55:31.918Z,74.00
2018-11-12T05:58:01.629Z,73.90
2018-11-12T06:00:36.248Z,73.90
2018-11-12T06:03:06.009Z,74.00
2018-11-12T06:05:35.920Z,74.00
2018-11-12T06:08:05.382Z,74.10
2018-11-12T06:10:35.483Z,74.10
2018-11-12T06:13:05.056Z,74.10
2018-11-12T06:15:34.380Z,74.10
2018-11-12T06:18:03.767Z,74.10
2018-11-12T06:20:33.916Z,74.10
2018-11-12T06:23:03.376Z,74.10
2018-11-12T06:25:34.388Z,74.10
2018-11-12T06:28:03.955Z,74.10
2018-11-12T06:30:35.644Z,74.20
2018-11-12T06:33:05.142Z,74.10
2018-11-12T06:35:34.513Z,74.10
2018-11-12T06:38:03.907Z,74.10
2018-11-12T06:40:33.252Z,74.30
2018-11-12T06:43:02.733Z,74.30
2018-11-12T06:45:32.543Z,74.30
2018-11-12T06:48:02.193Z,74.30
2018-11-12T06:50:32.736Z,74.30
2018-11-12T06:53:02.934Z,74.30
2018-11-12T06:55:32.372Z,74.50
2018-11-12T06:58:01.792Z,74.50
2018-11-12T07:00:32.463Z,74.50
2018-11-12T07:03:01.982Z,74.60
2018-11-12T07:05:31.987Z,74.60
2018-11-12T07:08:01.471Z,74.60
2018-11-12T07:10:30.928Z,74.60
2018-11-12T07:13:00.949Z,74.60
2018-11-12T07:15:30.566Z,75.60
2018-11-12T07:17:59.871Z,74.80
2018-11-12T07:20:30.047Z,74.80
2018-11-12T07:22:59.403Z,74.80
2018-11-12T07:25:29.871Z,75.00
2018-11-12T07:27:59.579Z,75.10
2018-11-12T07:30:29.499Z,75.20
2018-11-12T07:33:01.572Z,75.10
2018-11-12T07:35:31.042Z,75.20
2018-11-12T07:38:00.409Z,75.30
2018-11-12T07:40:29.797Z,75.40
2018-11-12T07:42:59.728Z,76.40
2018-11-12T07:45:29.782Z,75.70
2018-11-12T07:47:59.728Z,75.90
2018-11-12T07:50:30.263Z,75.90
2018-11-12T07:52:59.718Z,76.00
2018-11-12T07:55:29.643Z,76.00
2018-11-12T07:57:59.796Z,76.10
2018-11-12T08:00:31.538Z,76.20
2018-11-12T08:03:04.742Z,76.20
2018-11-12T08:05:34.646Z,76.20
2018-11-12T08:08:04.076Z,76.30
2018-11-12T08:10:33.574Z,76.40
2018-11-12T08:13:02.952Z,76.50
2018-11-12T08:15:32.375Z,76.60
2018-11-12T08:18:02.062Z,76.70
2018-11-12T08:20:31.778Z,77.00
2018-11-12T08:23:01.087Z,77.10
2018-11-12T08:25:30.399Z,77.00
2018-11-12T08:27:59.693Z,77.80
2018-11-12T08:30:30.062Z,78.10
2018-11-12T08:33:00.516Z,78.30
2018-11-12T08:35:29.833Z,78.40
2018-11-12T08:38:00.031Z,78.60
2018-11-12T08:40:30.234Z,78.70
2018-11-12T08:42:59.530Z,78.80
2018-11-12T08:45:28.900Z,79.00
2018-11-12T08:47:58.313Z,79.10
2018-11-12T08:50:28.394Z,79.20
2018-11-12T08:52:58.345Z,79.30
2018-11-12T08:55:29.143Z,79.20
2018-11-12T08:58:03.558Z,78.30
2018-11-12T09:00:33.022Z,78.30
2018-11-12T09:03:02.378Z,78.40
2018-11-12T09:05:32.249Z,78.50
2018-11-12T09:08:03.010Z,78.40
2018-11-12T09:10:34.074Z,78.70
2018-11-12T09:13:03.648Z,78.60
2018-11-12T09:15:33.004Z,78.70
2018-11-12T09:18:02.786Z,78.60
2018-11-12T09:20:32.160Z,78.50
2018-11-12T09:23:01.547Z,78.40
2018-11-12T09:25:30.920Z,78.20
2018-11-12T09:28:00.368Z,78.10
2018-11-12T09:30:30.784Z,77.80
2018-11-12T09:33:00.684Z,77.50
2018-11-12T09:35:32.194Z,77.20
2018-11-12T09:38:03.132Z,77.00
2018-11-12T09:40:36.202Z,76.70
2018-11-12T09:43:06.041Z,76.40
2018-11-12T09:45:36.008Z,76.00
2018-11-12T09:48:05.454Z,75.60
2018-11-12T09:50:34.839Z,75.10
2018-11-12T09:53:04.446Z,74.50
2018-11-12T09:55:34.455Z,74.00
2018-11-12T09:58:06.381Z,73.60
2018-11-12T10:00:36.067Z,73.10
2018-11-12T10:03:06.060Z,72.70
2018-11-12T10:05:35.778Z,72.20
2018-11-12T10:08:10.637Z,71.60
2018-11-12T10:10:46.199Z,71.10
2018-11-12T10:13:19.508Z,70.70
2018-11-12T10:15:50.269Z,70.20
2018-11-12T10:18:16.652Z,69.90
2018-11-12T10:20:46.063Z,69.40
2018-11-12T10:23:15.479Z,68.90
2018-11-12T10:25:46.503Z,68.50
2018-11-12T10:28:16.559Z,68.10
2018-11-12T10:30:45.944Z,67.60
2018-11-12T10:33:15.328Z,67.10
2018-11-12T10:35:44.700Z,67.40
2018-11-12T10:38:14.078Z,66.20
2018-11-12T10:40:43.437Z,65.80
2018-11-12T10:43:12.878Z,65.30
2018-11-12T10:45:42.331Z,64.90
2018-11-12T10:48:11.748Z,64.00
2018-11-12T10:50:41.227Z,63.80
2018-11-12T10:53:10.579Z,63.30
2018-11-12T10:55:40.175Z,62.90
2018-11-12T10:58:09.493Z,62.50
2018-11-12T11:00:44.243Z,62.20
2018-11-12T11:03:19.362Z,61.80
2018-11-12T11:05:50.635Z,61.70
2018-11-12T11:08:20.118Z,61.40
2018-11-12T11:10:49.507Z,61.10
2018-11-12T11:13:18.851Z,60.80
2018-11-12T11:15:48.205Z,60.40
2018-11-12T11:18:17.592Z,60.00
2018-11-12T11:20:47.051Z,59.80
2018-11-12T11:23:16.409Z,59.50
2018-11-12T11:25:45.840Z,59.30
2018-11-12T11:28:15.125Z,59.10
2018-11-12T11:30:44.465Z,58.80
2018-11-12T11:33:13.800Z,58.50
2018-11-12T11:35:43.201Z,58.20
2018-11-12T11:38:12.595Z,57.90
2018-11-12T11:40:42.214Z,57.60
2018-11-12T11:43:11.525Z,57.50
2018-11-12T11:45:40.956Z,57.30
2018-11-12T11:48:10.349Z,56.90
2018-11-12T11:50:39.691Z,56.60
2018-11-12T11:53:09.012Z,56.30
2018-11-12T11:55:38.421Z,56.10
2018-11-12T11:58:07.770Z,55.80
2018-11-12T12:00:37.166Z,55.50
2018-11-12T12:03:06.668Z,55.30
2018-11-12T12:05:35.957Z,55.10
2018-11-12T12:08:05.357Z,54.90
2018-11-12T12:10:34.708Z,54.80
2018-11-12T12:13:04.084Z,54.70
2018-11-12T12:15:33.444Z,54.40
2018-11-12T12:18:02.869Z,54.30
2018-11-12T12:20:32.225Z,54.10
2018-11-12T12:23:01.579Z,53.90
2018-11-12T12:25:31.098Z,53.60
2018-11-12T12:28:00.345Z,53.30
2018-11-12T12:30:29.703Z,53.20
2018-11-12T12:32:59.597Z,53.00
2018-11-12T12:35:28.963Z,52.90
2018-11-12T12:37:58.340Z,52.70
2018-11-12T12:40:27.731Z,52.60
2018-11-12T12:42:57.104Z,52.40
2018-11-12T12:45:27.482Z,52.30
2018-11-12T12:47:57.659Z,52.10
2018-11-12T12:50:27.020Z,52.00
2018-11-12T12:52:56.331Z,51.80
2018-11-12T12:55:25.732Z,51.70
2018-11-12T12:57:55.084Z,51.70
2018-11-12T13:00:25.780Z,52.30
2018-11-12T13:02:55.511Z,51.60
2018-11-12T13:05:24.891Z,51.50
2018-11-12T13:07:54.237Z,51.40
2018-11-12T13:10:24.225Z,51.20
2018-11-12T13:12:53.606Z,51.30
2018-11-12T13:15:23.056Z,51.30
2018-11-12T13:17:52.810Z,51.40
2018-11-12T13:20:23.697Z,51.40
2018-11-12T13:22:53.042Z,51.30
2018-11-12T13:25:22.437Z,51.20
2018-11-12T13:27:51.817Z,51.20
2018-11-12T13:30:22.509Z,51.10
2018-11-12T13:32:52.434Z,51.70
2018-11-12T13:35:25.831Z,50.90
2018-11-12T13:37:55.176Z,50.90
2018-11-12T13:40:25.854Z,50.90
2018-11-12T13:42:56.817Z,50.70
2018-11-12T13:45:26.732Z,50.80
2018-11-12T13:47:57.067Z,50.90
2018-11-12T13:50:27.576Z,50.90
2018-11-12T13:52:57.734Z,51.00
2018-11-12T13:55:27.076Z,51.00
2018-11-12T13:57:56.542Z,51.10
2018-11-12T14:00:27.275Z,51.10
2018-11-12T14:02:57.382Z,51.20
2018-11-12T14:05:28.103Z,51.30
2018-11-12T14:07:57.490Z,51.30
2018-11-12T14:10:29.141Z,51.50
2018-11-12T14:12:59.272Z,51.50
2018-11-12T14:15:28.655Z,51.70
2018-11-12T14:17:58.297Z,51.60
2018-11-12T14:20:28.101Z,51.60
2018-11-12T14:22:57.426Z,51.70
2018-11-12T14:25:27.209Z,51.70
2018-11-12T14:27:57.633Z,51.80
2018-11-12T14:30:28.346Z,52.20
2018-11-12T14:32:58.167Z,52.70
2018-11-12T14:35:28.123Z,53.20
2018-11-12T14:37:57.435Z,53.50
2018-11-12T14:40:27.365Z,54.50
2018-11-12T14:42:56.772Z,54.20
2018-11-12T14:45:26.245Z,54.50
2018-11-12T14:47:55.445Z,54.70
2018-11-12T14:50:24.771Z,55.00
2018-11-12T14:52:54.097Z,55.20
2018-11-12T14:55:23.483Z,55.40
2018-11-12T14:57:53.012Z,55.60
2018-11-12T15:00:24.830Z,55.80
2018-11-12T15:02:56.023Z,56.00
2018-11-12T15:05:26.285Z,56.20
2018-11-12T15:07:55.665Z,56.40
2018-11-12T15:10:25.092Z,56.60
2018-11-12T15:12:54.439Z,56.80
2018-11-12T15:15:23.839Z,56.90
2018-11-12T15:17:53.196Z,57.00
2018-11-12T15:20:22.574Z,57.20
2018-11-12T15:22:52.067Z,57.40
2018-11-12T15:25:23.916Z,57.50
2018-11-12T15:27:53.310Z,57.70
2018-11-12T15:30:24.219Z,57.90
2018-11-12T15:32:55.120Z,58.00
2018-11-12T15:35:24.511Z,58.20
2018-11-12T15:37:54.036Z,58.30
2018-11-12T15:40:23.507Z,58.40
2018-11-12T15:42:52.917Z,58.50
2018-11-12T15:45:23.899Z,58.60
2018-11-12T15:47:53.337Z,58.70
2018-11-12T15:50:33.959Z,58.90
2018-11-12T15:53:03.473Z,59.10
2018-11-12T15:55:32.912Z,59.10
2018-11-12T15:58:02.299Z,59.30
2018-11-12T16:00:31.789Z,59.40
2018-11-12T16:03:01.149Z,59.50
2018-11-12T16:05:30.898Z,59.60
2018-11-12T16:08:00.485Z,59.70
2018-11-12T16:10:29.893Z,59.80
2018-11-12T16:12:59.346Z,59.80
2018-11-12T16:15:28.697Z,59.80
2018-11-12T16:17:58.053Z,59.80
2018-11-12T16:20:29.629Z,59.80
2018-11-12T16:22:59.976Z,59.70
2018-11-12T16:25:29.883Z,59.70
2018-11-12T16:27:59.442Z,59.80
2018-11-12T16:30:28.852Z,59.90
2018-11-12T16:32:58.295Z,60.00
2018-11-12T16:35:27.867Z,60.00
2018-11-12T16:37:57.950Z,60.20
2018-11-12T16:40:27.590Z,60.20
2018-11-12T16:42:57.416Z,60.30
2018-11-12T16:45:26.806Z,60.50
2018-11-12T16:47:56.196Z,60.60
2018-11-12T16:50:25.632Z,60.70
2018-11-12T16:52:57.829Z,60.80
2018-11-12T16:55:28.271Z,60.90
2018-11-12T16:57:57.623Z,61.20
2018-11-12T17:00:26.964Z,61.30
2018-11-12T17:02:56.337Z,61.60
2018-11-12T17:05:25.820Z,61.80
2018-11-12T17:07:55.171Z,61.80
2018-11-12T17:10:26.760Z,62.00
2018-11-12T17:12:56.283Z,62.10
2018-11-12T17:15:25.655Z,62.10
2018-11-12T17:17:56.428Z,62.10
2018-11-12T17:20:25.834Z,62.30
2018-11-12T17:22:55.183Z,62.40
2018-11-12T17:25:24.545Z,62.40
2018-11-12T17:27:53.822Z,62.60
2018-11-12T17:30:23.174Z,63.90
2018-11-12T17:32:52.582Z,63.90
2018-11-12T17:35:22.942Z,64.00
2018-11-12T17:37:52.453Z,63.90
2018-11-12T17:40:24.148Z,63.90
2018-11-12T17:42:54.355Z,64.00
2018-11-12T17:45:26.380Z,64.40
2018-11-12T17:47:56.701Z,64.10
2018-11-12T17:50:26.141Z,64.10
2018-11-12T17:52:55.519Z,64.10
2018-11-12T17:55:24.920Z,64.30
2018-11-12T17:57:54.443Z,64.30
2018-11-12T18:00:26.011Z,64.30
2018-11-12T18:02:55.400Z,64.30
2018-11-12T18:05:24.771Z,64.30
2018-11-12T18:07:54.273Z,64.40
2018-11-12T18:10:23.464Z,64.50
2018-11-12T18:12:52.945Z,64.50
2018-11-12T18:15:23.815Z,64.60
2018-11-12T18:17:53.576Z,64.60
2018-11-12T18:20:25.285Z,64.70
2018-11-12T18:22:55.322Z,64.80
2018-11-12T18:25:24.659Z,64.80
2018-11-12T18:27:55.717Z,64.80
2018-11-12T18:30:27.801Z,64.90
2018-11-12T18:32:58.428Z,64.90
2018-11-12T18:35:27.770Z,65.00
2018-11-12T18:37:57.291Z,65.20
2018-11-12T18:40:28.104Z,65.30
2018-11-12T18:42:57.478Z,65.30
2018-11-12T18:45:27.773Z,65.30
2018-11-12T18:47:58.116Z,65.30
2018-11-12T18:50:29.811Z,65.30
2018-11-12T18:52:59.173Z,65.30
2018-11-12T18:55:28.563Z,65.40
2018-11-12T18:57:58.337Z,65.40
2018-11-12T19:00:28.066Z,65.40
2018-11-12T19:02:58.352Z,65.40
2018-11-12T19:05:29.197Z,65.30
2018-11-12T19:08:00.853Z,65.30
2018-11-12T19:10:31.827Z,65.40
2018-11-12T19:13:01.285Z,65.40
2018-11-12T19:15:38.555Z,65.50
2018-11-12T19:18:11.932Z,65.80
2018-11-12T19:20:47.999Z,66.30
2018-11-12T19:23:17.371Z,66.40
2018-11-12T19:25:48.463Z,66.30
2018-11-12T19:28:17.975Z,66.20
2018-11-12T19:30:47.516Z,66.20
2018-11-12T19:33:16.914Z,66.30
2018-11-12T19:35:47.024Z,66.30
2018-11-12T19:38:16.427Z,66.40
2018-11-12T19:40:46.529Z,66.50
2018-11-12T19:43:16.528Z,66.50
2018-11-12T19:45:45.938Z,66.50
2018-11-12T19:48:15.296Z,66.60
2018-11-12T19:50:44.689Z,66.60
2018-11-12T19:53:14.072Z,66.60
2018-11-12T19:55:43.486Z,66.60
2018-11-12T19:58:12.838Z,66.60
2018-11-12T20:00:42.196Z,66.60
2018-11-12T20:03:11.613Z,66.50
2018-11-12T20:05:40.947Z,66.60
2018-11-12T20:08:10.421Z,66.50
2018-11-12T20:10:39.821Z,66.70
2018-11-12T20:13:09.181Z,66.70
2018-11-12T20:15:38.605Z,66.80
2018-11-12T20:18:07.940Z,66.80
2018-11-12T20:20:37.361Z,66.80
2018-11-12T20:23:07.353Z,66.80
2018-11-12T20:25:36.743Z,66.90
2018-11-12T20:28:06.189Z,66.80
2018-11-12T20:30:37.061Z,66.90
2018-11-12T20:33:07.150Z,66.80
2018-11-12T20:35:36.559Z,66.90
2018-11-12T20:38:05.996Z,67.00
2018-11-12T20:40:35.398Z,67.10
2018-11-12T20:43:04.800Z,67.20
2018-11-12T20:45:34.205Z,67.30
2018-11-12T20:48:03.706Z,67.20
2018-11-12T20:50:33.046Z,67.20
2018-11-12T20:53:02.469Z,67.30
2018-11-12T20:55:31.858Z,67.20
2018-11-12T20:58:01.295Z,67.20
2018-11-12T21:00:30.648Z,67.40
2018-11-12T21:03:00.065Z,67.30
2018-11-12T21:05:30.533Z,67.60
2018-11-12T21:08:00.021Z,67.60
2018-11-12T21:10:29.431Z,67.60
2018-11-12T21:12:58.929Z,67.60
2018-11-12T21:15:28.367Z,67.70
2018-11-12T21:17:57.747Z,67.60
2018-11-12T21:20:27.560Z,67.60
2018-11-12T21:22:57.051Z,67.40
2018-11-12T21:25:27.370Z,67.60
2018-11-12T21:27:56.814Z,67.60
2018-11-12T21:30:27.786Z,67.50
2018-11-12T21:32:57.790Z,67.50
2018-11-12T21:35:27.163Z,67.60
2018-11-12T21:37:57.636Z,67.50
2018-11-12T21:40:28.322Z,67.60
2018-11-12T21:42:57.806Z,67.50
2018-11-12T21:45:28.550Z,67.50
2018-11-12T21:47:57.894Z,67.50
2018-11-12T21:50:27.364Z,67.60
2018-11-12T21:52:56.748Z,67.70
2018-11-12T21:55:26.111Z,67.70
2018-11-12T21:57:55.482Z,67.70
2018-11-12T22:00:28.331Z,67.60
2018-11-12T22:03:00.809Z,67.70
2018-11-12T22:05:31.188Z,67.70
2018-11-12T22:08:00.860Z,67.70
2018-11-12T22:10:30.255Z,67.80
2018-11-12T22:12:59.598Z,67.80
2018-11-12T22:15:28.997Z,68.00
2018-11-12T22:17:58.367Z,68.10
2018-11-12T22:20:28.807Z,68.50
2018-11-12T22:22:58.155Z,68.60
2018-11-12T22:25:27.503Z,68.40
2018-11-12T22:27:56.892Z,68.40
2018-11-12T22:30:27.216Z,68.40
2018-11-12T22:32:57.100Z,68.30
2018-11-12T22:35:26.478Z,68.30
2018-11-12T22:37:56.288Z,68.30
2018-11-12T22:40:25.642Z,68.30
2018-11-12T22:42:55.026Z,68.40
2018-11-12T22:45:25.364Z,68.30
2018-11-12T22:47:54.845Z,68.40
2018-11-12T22:50:24.164Z,68.40
2018-11-12T22:52:53.579Z,68.40
2018-11-12T22:55:22.912Z,68.40
2018-11-12T22:57:52.342Z,68.40
2018-11-12T23:00:35.735Z,68.40
2018-11-12T23:03:05.633Z,68.40
2018-11-12T23:05:35.652Z,68.50
2018-11-12T23:08:05.340Z,68.60
2018-11-12T23:10:34.663Z,68.40
2018-11-12T23:13:04.028Z,68.50
2018-11-12T23:15:33.355Z,68.50
2018-11-12T23:18:02.721Z,68.50
2018-11-12T23:20:32.142Z,68.60
2018-11-12T23:23:01.467Z,68.70
2018-11-12T23:25:30.877Z,68.60
2018-11-12T23:28:00.226Z,68.70
2018-11-12T23:30:29.541Z,68.70
2018-11-12T23:32:59.025Z,68.80
2018-11-12T23:35:28.351Z,68.80
2018-11-12T23:37:57.707Z,68.80
2018-11-12T23:40:27.057Z,68.90
2018-11-12T23:42:57.415Z,69.00
2018-11-12T23:45:26.742Z,69.00
2018-11-12T23:47:56.136Z,69.10
2018-11-12T23:50:25.454Z,69.10
2018-11-12T23:52:55.316Z,68.90
2018-11-12T23:55:24.638Z,69.00
2018-11-12T23:57:54.095Z,69.00
